IBE0281 LEMD-RJAA
Flight info
| Callsign | IBE0281 |
|---|---|
| Flight time | N/A |
| Altitude | 34000 |
| Route | PINAR N870 BCN N725 OSPOK DCT NOLVI DCT ORKUM DCT ELSAG DCT ALG DCT XOLTA DCT RAMAP DCT NISVA Q13 UDROS UN743 GAKSU UT310 SIN UM860 CRM UM11 TBN UG261 NOLGA DCT BARAD M747 SUBUT T916 LEYLA N161 GASBI/K0911F340 N161 SARIN/K0909S1035 A368 FKG W188 LIKMI W270 DKO W69 HUR B339 LADIX W34 VAPGU W100 MUDOT DCT UNSEK A326 DONVO G597 AGAVO/N0498F340 Y644 EGOBA Y697 LANAT Y51 SAMON Y517 ESKAS Y303 ENTAK Y30 SWAMP |
| Aircraft | A359/H-SDE2E3GHIJ3J4J5LM1ORWXY/LB1D1 |
Departure
| Time | 2026-05-07 09:02 |
|---|---|
| Airport | Adolfo Suárez Madrid–Barajas Airport (LEMD) |
Arrival
| Time | N/A |
|---|---|
| Airport | Narita International Airport (RJAA) |
| Time | Latitude | Longitude | Altitude | Speed | Heading |
|---|---|---|---|---|---|
| 2026-05-07 08:40 | 40.49739 | -3.56868 | 1978 ft | 0 kts | 90° |
| 2026-05-07 08:55 | 40.49738 | -3.56899 | 1980 ft | 4 kts | 90° |
| 2026-05-07 08:55 | 40.49738 | -3.56934 | 1979 ft | 4 kts | 90° |
| 2026-05-07 08:55 | 40.49738 | -3.56968 | 1982 ft | 2 kts | 89° |
| 2026-05-07 08:56 | 40.49734 | -3.56997 | 1985 ft | 6 kts | 41° |
| 2026-05-07 08:56 | 40.49712 | -3.57005 | 1985 ft | 5 kts | 356° |
| 2026-05-07 08:56 | 40.49701 | -3.56997 | 1983 ft | 2 kts | 360° |
| 2026-05-07 08:56 | 40.49705 | -3.56917 | 1979 ft | 0 kts | 360° |
| 2026-05-07 08:58 | 40.49722 | -3.56917 | 1982 ft | 6 kts | 359° |
| 2026-05-07 08:58 | 40.49785 | -3.56944 | 1983 ft | 13 kts | 340° |
| 2026-05-07 08:58 | 40.49882 | -3.56989 | 1987 ft | 16 kts | 343° |
| 2026-05-07 08:58 | 40.49999 | -3.56991 | 1985 ft | 19 kts | 24° |
| 2026-05-07 08:59 | 40.50025 | -3.56855 | 1984 ft | 16 kts | 89° |
| 2026-05-07 08:59 | 40.50026 | -3.56748 | 1984 ft | 19 kts | 89° |
| 2026-05-07 08:59 | 40.50028 | -3.56559 | 1977 ft | 20 kts | 89° |
| 2026-05-07 08:59 | 40.50029 | -3.56405 | 1974 ft | 16 kts | 89° |
| 2026-05-07 09:00 | 40.50026 | -3.56249 | 1967 ft | 17 kts | 91° |
| 2026-05-07 09:00 | 40.50028 | -3.56099 | 1964 ft | 17 kts | 88° |
| 2026-05-07 09:00 | 40.50035 | -3.56045 | 1965 ft | 0 kts | 77° |
| 2026-05-07 09:01 | 40.50035 | -3.56044 | 1965 ft | 1 kts | 77° |
| 2026-05-07 09:01 | 40.50042 | -3.56015 | 1966 ft | 6 kts | 66° |
| 2026-05-07 09:01 | 40.50092 | -3.55946 | 1966 ft | 16 kts | 30° |
| 2026-05-07 09:01 | 40.50256 | -3.55920 | 1971 ft | 37 kts | 0° |
| 2026-05-07 09:02 | 40.50729 | -3.55925 | 1974 ft | 100 kts | 360° |
| 2026-05-07 09:02 | 40.51615 | -3.55930 | 1957 ft | 157 kts | 360° |
| 2026-05-07 09:02 | 40.52843 | -3.55951 | 2196 ft | 186 kts | 1° |
| 2026-05-07 09:02 | 40.54151 | -3.55947 | 2867 ft | 187 kts | 5° |
| 2026-05-07 09:03 | 40.55429 | -3.55664 | 3539 ft | 189 kts | 22° |
| 2026-05-07 09:03 | 40.56674 | -3.54971 | 3809 ft | 197 kts | 25° |
| 2026-05-07 09:03 | 40.57965 | -3.54250 | 3994 ft | 206 kts | 24° |
| 2026-05-07 09:03 | 40.59317 | -3.53551 | 4206 ft | 214 kts | 27° |
| 2026-05-07 09:04 | 40.60565 | -3.52427 | 4464 ft | 219 kts | 42° |
| 2026-05-07 09:04 | 40.61726 | -3.51073 | 4619 ft | 235 kts | 43° |
| 2026-05-07 09:04 | 40.63007 | -3.49615 | 4760 ft | 251 kts | 42° |
| 2026-05-07 09:04 | 40.64377 | -3.48090 | 5016 ft | 262 kts | 41° |
| 2026-05-07 09:05 | 40.65785 | -3.46542 | 5478 ft | 265 kts | 41° |
| 2026-05-07 09:05 | 40.67221 | -3.44984 | 5996 ft | 269 kts | 41° |
| 2026-05-07 09:05 | 40.68667 | -3.43398 | 6485 ft | 273 kts | 42° |
| 2026-05-07 09:05 | 40.70129 | -3.41779 | 6930 ft | 278 kts | 41° |
| 2026-05-07 09:06 | 40.71622 | -3.40117 | 7404 ft | 282 kts | 41° |
| 2026-05-07 09:06 | 40.73128 | -3.38436 | 7910 ft | 286 kts | 41° |
| 2026-05-07 09:06 | 40.74653 | -3.36730 | 8439 ft | 288 kts | 41° |
| 2026-05-07 09:06 | 40.76191 | -3.35008 | 8968 ft | 291 kts | 41° |
| 2026-05-07 09:07 | 40.77736 | -3.33273 | 9507 ft | 295 kts | 41° |
| 2026-05-07 09:07 | 40.79305 | -3.31512 | 10017 ft | 298 kts | 41° |
| 2026-05-07 09:07 | 40.80909 | -3.29709 | 10358 ft | 309 kts | 41° |
| 2026-05-07 09:07 | 40.82578 | -3.27833 | 10615 ft | 322 kts | 41° |
| 2026-05-07 09:08 | 40.84283 | -3.25828 | 10879 ft | 334 kts | 47° |
| 2026-05-07 09:08 | 40.85612 | -3.23264 | 11113 ft | 344 kts | 69° |
| 2026-05-07 09:08 | 40.86330 | -3.20226 | 11404 ft | 353 kts | 77° |
| 2026-05-07 09:08 | 40.86942 | -3.17026 | 11676 ft | 364 kts | 77° |
| 2026-05-07 09:09 | 40.87573 | -3.13730 | 11954 ft | 375 kts | 77° |
| 2026-05-07 09:09 | 40.88229 | -3.10351 | 12214 ft | 386 kts | 77° |
| 2026-05-07 09:09 | 40.88910 | -3.06863 | 12547 ft | 394 kts | 77° |
| 2026-05-07 09:09 | 40.89600 | -3.03343 | 13004 ft | 398 kts | 77° |
| 2026-05-07 09:10 | 40.90295 | -2.99798 | 13497 ft | 401 kts | 77° |
| 2026-05-07 09:10 | 40.90995 | -2.96219 | 13958 ft | 404 kts | 77° |
| 2026-05-07 09:10 | 40.91701 | -2.92607 | 14375 ft | 407 kts | 77° |
| 2026-05-07 09:10 | 40.92412 | -2.88966 | 14805 ft | 411 kts | 77° |
| 2026-05-07 09:11 | 40.93128 | -2.85288 | 15224 ft | 414 kts | 77° |
| 2026-05-07 09:11 | 40.93845 | -2.81597 | 15653 ft | 416 kts | 77° |
| 2026-05-07 09:11 | 40.94568 | -2.77877 | 16088 ft | 419 kts | 77° |
| 2026-05-07 09:11 | 40.95293 | -2.74138 | 16515 ft | 422 kts | 77° |
| 2026-05-07 09:12 | 40.96023 | -2.70360 | 16943 ft | 425 kts | 77° |
| 2026-05-07 09:12 | 40.96755 | -2.66565 | 17370 ft | 428 kts | 77° |
| 2026-05-07 09:12 | 40.97491 | -2.62744 | 17824 ft | 430 kts | 77° |
| 2026-05-07 09:12 | 40.98233 | -2.58890 | 18242 ft | 433 kts | 77° |
| 2026-05-07 09:13 | 40.98980 | -2.55016 | 18618 ft | 436 kts | 77° |
| 2026-05-07 09:13 | 40.99727 | -2.51113 | 19003 ft | 439 kts | 77° |
| 2026-05-07 09:13 | 41.00475 | -2.47182 | 19397 ft | 442 kts | 77° |
| 2026-05-07 09:13 | 41.01225 | -2.43226 | 19799 ft | 444 kts | 78° |
| 2026-05-07 09:14 | 41.01969 | -2.39300 | 20210 ft | 447 kts | 78° |
| 2026-05-07 09:14 | 41.02728 | -2.35292 | 20630 ft | 449 kts | 78° |
| 2026-05-07 09:14 | 41.03488 | -2.31274 | 21045 ft | 452 kts | 78° |
| 2026-05-07 09:14 | 41.04265 | -2.27170 | 21421 ft | 456 kts | 78° |
| 2026-05-07 09:15 | 41.05030 | -2.23124 | 21749 ft | 460 kts | 78° |
| 2026-05-07 09:15 | 41.05808 | -2.19002 | 22159 ft | 462 kts | 78° |
| 2026-05-07 09:15 | 41.06589 | -2.14856 | 22561 ft | 465 kts | 78° |
| 2026-05-07 09:15 | 41.07372 | -2.10687 | 22958 ft | 468 kts | 78° |
| 2026-05-07 09:16 | 41.08161 | -2.06480 | 23346 ft | 471 kts | 78° |
| 2026-05-07 09:16 | 41.08953 | -2.02260 | 23682 ft | 474 kts | 78° |
| 2026-05-07 09:16 | 41.09747 | -1.97998 | 24014 ft | 477 kts | 78° |
| 2026-05-07 09:16 | 41.10539 | -1.93724 | 24320 ft | 479 kts | 79° |
| 2026-05-07 09:17 | 41.11336 | -1.89416 | 24600 ft | 482 kts | 79° |
| 2026-05-07 09:17 | 41.12134 | -1.85086 | 24878 ft | 485 kts | 79° |
| 2026-05-07 09:17 | 41.12916 | -1.80840 | 25227 ft | 487 kts | 79° |
| 2026-05-07 09:17 | 41.13741 | -1.76355 | 25536 ft | 490 kts | 79° |
| 2026-05-07 09:18 | 41.14550 | -1.71951 | 25867 ft | 492 kts | 79° |
| 2026-05-07 09:18 | 41.15362 | -1.67519 | 26152 ft | 495 kts | 79° |
| 2026-05-07 09:18 | 41.16175 | -1.63071 | 26482 ft | 497 kts | 79° |
| 2026-05-07 09:18 | 41.16989 | -1.58606 | 26765 ft | 500 kts | 79° |
| 2026-05-07 09:19 | 41.17809 | -1.54096 | 27054 ft | 502 kts | 79° |
| 2026-05-07 09:19 | 41.18626 | -1.49591 | 27295 ft | 505 kts | 79° |
| 2026-05-07 09:19 | 41.19449 | -1.45040 | 27555 ft | 508 kts | 79° |
| 2026-05-07 09:19 | 41.20272 | -1.40468 | 27830 ft | 510 kts | 79° |
| 2026-05-07 09:20 | 41.21098 | -1.35886 | 28104 ft | 512 kts | 79° |
| 2026-05-07 09:20 | 41.21929 | -1.31273 | 28361 ft | 514 kts | 79° |
| 2026-05-07 09:20 | 41.22761 | -1.26648 | 28621 ft | 516 kts | 79° |
| 2026-05-07 09:20 | 41.23595 | -1.21995 | 28886 ft | 518 kts | 79° |
| 2026-05-07 09:21 | 41.24428 | -1.17334 | 29257 ft | 517 kts | 79° |
| 2026-05-07 09:21 | 41.25255 | -1.12695 | 29557 ft | 518 kts | 79° |
| 2026-05-07 09:21 | 41.26074 | -1.08086 | 29774 ft | 519 kts | 79° |
| 2026-05-07 09:21 | 41.26902 | -1.03414 | 30102 ft | 518 kts | 79° |
| 2026-05-07 09:22 | 41.27737 | -0.98691 | 30395 ft | 518 kts | 79° |
| 2026-05-07 09:22 | 41.28546 | -0.94100 | 30660 ft | 517 kts | 79° |
| 2026-05-07 09:22 | 41.29364 | -0.89451 | 30934 ft | 517 kts | 79° |
| 2026-05-07 09:22 | 41.30181 | -0.84793 | 31179 ft | 516 kts | 79° |
| 2026-05-07 09:23 | 41.30994 | -0.80142 | 31408 ft | 516 kts | 79° |
| 2026-05-07 09:23 | 41.31805 | -0.75500 | 31634 ft | 515 kts | 79° |
| 2026-05-07 09:23 | 41.33427 | -0.66164 | 31908 ft | 519 kts | 79° |
| 2026-05-07 09:24 | 41.34235 | -0.61497 | 32151 ft | 517 kts | 79° |
| 2026-05-07 09:24 | 41.34975 | -0.56813 | 32431 ft | 514 kts | 84° |
| 2026-05-07 09:24 | 41.35295 | -0.52111 | 32723 ft | 509 kts | 92° |
| 2026-05-07 09:24 | 41.35365 | -0.47403 | 32914 ft | 508 kts | 93° |
| 2026-05-07 09:25 | 41.35365 | -0.42719 | 33106 ft | 507 kts | 94° |
| 2026-05-07 09:25 | 41.35329 | -0.38014 | 33305 ft | 506 kts | 94° |
| 2026-05-07 09:25 | 41.35279 | -0.33330 | 33492 ft | 506 kts | 94° |
| 2026-05-07 09:25 | 41.35227 | -0.28665 | 33674 ft | 506 kts | 94° |
| 2026-05-07 09:26 | 41.35177 | -0.23977 | 33863 ft | 505 kts | 94° |
| 2026-05-07 09:26 | 41.35128 | -0.19303 | 33978 ft | 506 kts | 94° |
| 2026-05-07 09:26 | 41.35032 | -0.09872 | 34002 ft | 512 kts | 94° |
| 2026-05-07 09:27 | 41.34935 | -0.00465 | 33996 ft | 511 kts | 94° |
| 2026-05-07 09:28 | 41.34774 | 0.13763 | 33995 ft | 513 kts | 95° |
| 2026-05-07 09:28 | 41.34656 | 0.23275 | 34001 ft | 515 kts | 95° |
| 2026-05-07 09:29 | 41.34533 | 0.32805 | 34002 ft | 515 kts | 95° |
| 2026-05-07 09:29 | 41.34398 | 0.42340 | 33999 ft | 516 kts | 95° |
| 2026-05-07 09:30 | 41.34253 | 0.51903 | 34005 ft | 518 kts | 95° |
| 2026-05-07 09:30 | 41.34103 | 0.61472 | 34004 ft | 518 kts | 95° |
| 2026-05-07 09:31 | 41.33944 | 0.71062 | 33998 ft | 518 kts | 95° |
| 2026-05-07 09:31 | 41.33777 | 0.80638 | 33996 ft | 518 kts | 95° |
| 2026-05-07 09:32 | 41.33600 | 0.90258 | 33998 ft | 520 kts | 95° |
| 2026-05-07 09:32 | 41.33416 | 0.99865 | 34013 ft | 520 kts | 96° |
| 2026-05-07 09:33 | 41.33225 | 1.09504 | 34017 ft | 520 kts | 96° |
| 2026-05-07 09:33 | 41.33025 | 1.19130 | 34020 ft | 521 kts | 96° |
| 2026-05-07 09:34 | 41.32819 | 1.28721 | 34016 ft | 522 kts | 96° |
| 2026-05-07 09:34 | 41.32603 | 1.38386 | 34015 ft | 522 kts | 96° |
| 2026-05-07 09:35 | 41.32379 | 1.48041 | 34000 ft | 522 kts | 96° |
| 2026-05-07 09:35 | 41.32146 | 1.57716 | 34010 ft | 523 kts | 96° |
| 2026-05-07 09:36 | 41.31906 | 1.67345 | 34010 ft | 524 kts | 96° |
| 2026-05-07 09:36 | 41.31682 | 1.76091 | 34015 ft | 524 kts | 96° |
| 2026-05-07 09:37 | 41.31424 | 1.85784 | 34020 ft | 524 kts | 96° |
| 2026-05-07 09:37 | 41.31157 | 1.95468 | 34018 ft | 524 kts | 96° |
| 2026-05-07 09:38 | 41.30883 | 2.05142 | 34019 ft | 524 kts | 96° |
| 2026-05-07 09:38 | 41.30047 | 2.14708 | 34021 ft | 518 kts | 105° |
| 2026-05-07 09:39 | 41.28575 | 2.24082 | 34020 ft | 517 kts | 107° |
| 2026-05-07 09:39 | 41.27020 | 2.33360 | 34018 ft | 518 kts | 107° |
| 2026-05-07 09:40 | 41.25445 | 2.42712 | 34019 ft | 519 kts | 107° |
| 2026-05-07 09:40 | 41.23875 | 2.52068 | 34020 ft | 519 kts | 107° |
| 2026-05-07 09:41 | 41.22305 | 2.61414 | 34017 ft | 519 kts | 107° |
| 2026-05-07 09:41 | 41.20727 | 2.70761 | 34012 ft | 519 kts | 107° |
| 2026-05-07 09:42 | 41.19133 | 2.80145 | 34019 ft | 521 kts | 107° |
| 2026-05-07 09:42 | 41.17530 | 2.89533 | 34018 ft | 521 kts | 107° |
| 2026-05-07 09:43 | 41.15923 | 2.98905 | 34018 ft | 521 kts | 107° |
| 2026-05-07 09:43 | 41.14304 | 3.08289 | 34014 ft | 521 kts | 107° |
| 2026-05-07 09:44 | 41.12677 | 3.17666 | 34018 ft | 522 kts | 107° |
| 2026-05-07 09:44 | 41.11051 | 3.26996 | 34020 ft | 522 kts | 108° |
| 2026-05-07 09:45 | 41.09408 | 3.36376 | 34018 ft | 522 kts | 108° |
| 2026-05-07 09:45 | 41.07758 | 3.45750 | 34023 ft | 522 kts | 108° |
| 2026-05-07 09:46 | 41.06096 | 3.55139 | 34021 ft | 524 kts | 108° |
| 2026-05-07 09:46 | 41.04424 | 3.64539 | 34005 ft | 524 kts | 108° |
| 2026-05-07 09:47 | 41.03029 | 3.72348 | 34005 ft | 524 kts | 108° |
| 2026-05-07 09:47 | 41.01344 | 3.81733 | 33997 ft | 524 kts | 108° |
| 2026-05-07 09:48 | 40.99647 | 3.91128 | 34020 ft | 526 kts | 108° |
| 2026-05-07 09:48 | 40.97934 | 4.00545 | 34020 ft | 526 kts | 108° |
| 2026-05-07 09:49 | 40.96217 | 4.09951 | 34020 ft | 526 kts | 108° |
| 2026-05-07 09:49 | 40.94496 | 4.19331 | 34020 ft | 526 kts | 108° |
| 2026-05-07 09:50 | 40.92759 | 4.28742 | 34018 ft | 528 kts | 108° |
| 2026-05-07 09:50 | 40.91013 | 4.38166 | 34015 ft | 529 kts | 108° |
| 2026-05-07 09:51 | 40.89257 | 4.47607 | 34013 ft | 529 kts | 108° |
| 2026-05-07 09:51 | 40.87500 | 4.57054 | 34015 ft | 529 kts | 108° |
| 2026-05-07 09:52 | 40.85808 | 4.66522 | 34012 ft | 533 kts | 103° |
| 2026-05-07 09:52 | 40.84790 | 4.76232 | 34015 ft | 535 kts | 101° |
| 2026-05-07 09:53 | 40.83891 | 4.85985 | 34015 ft | 535 kts | 101° |
| 2026-05-07 09:53 | 40.82998 | 4.95728 | 34002 ft | 535 kts | 101° |
| 2026-05-07 09:54 | 40.82083 | 5.05490 | 34017 ft | 535 kts | 101° |
| 2026-05-07 09:54 | 40.81154 | 5.15253 | 34015 ft | 536 kts | 101° |
| 2026-05-07 09:55 | 40.80221 | 5.24943 | 34015 ft | 536 kts | 101° |
| 2026-05-07 09:55 | 40.79276 | 5.34685 | 33999 ft | 535 kts | 101° |
| 2026-05-07 09:56 | 40.78321 | 5.44436 | 34010 ft | 536 kts | 101° |
| 2026-05-07 09:56 | 40.77358 | 5.54187 | 34004 ft | 536 kts | 101° |
| 2026-05-07 09:57 | 40.76385 | 5.63958 | 34011 ft | 537 kts | 101° |
| 2026-05-07 09:57 | 40.75408 | 5.73683 | 34007 ft | 536 kts | 101° |
| 2026-05-07 09:58 | 40.74418 | 5.83443 | 34013 ft | 537 kts | 101° |
| 2026-05-07 09:58 | 40.73419 | 5.93210 | 34012 ft | 537 kts | 101° |
| 2026-05-07 09:59 | 40.72415 | 6.02959 | 34015 ft | 537 kts | 101° |
| 2026-05-07 09:59 | 40.71398 | 6.12717 | 34008 ft | 537 kts | 102° |
| 2026-05-07 10:00 | 40.70371 | 6.22481 | 34025 ft | 538 kts | 102° |
| 2026-05-07 10:00 | 40.69342 | 6.32195 | 34005 ft | 539 kts | 102° |
| 2026-05-07 10:01 | 40.68295 | 6.41999 | 34023 ft | 539 kts | 102° |
| 2026-05-07 10:01 | 40.67244 | 6.51766 | 34019 ft | 539 kts | 102° |
| 2026-05-07 10:02 | 40.66181 | 6.61558 | 33996 ft | 540 kts | 102° |
| 2026-05-07 10:02 | 40.65110 | 6.71341 | 34017 ft | 540 kts | 102° |
| 2026-05-07 10:03 | 40.64030 | 6.81134 | 34015 ft | 540 kts | 102° |
| 2026-05-07 10:03 | 40.62942 | 6.90920 | 34007 ft | 541 kts | 102° |
| 2026-05-07 10:04 | 40.61847 | 7.00686 | 34009 ft | 543 kts | 102° |
| 2026-05-07 10:04 | 40.60738 | 7.10512 | 34006 ft | 543 kts | 102° |
| 2026-05-07 10:05 | 40.59618 | 7.20353 | 34008 ft | 543 kts | 102° |
| 2026-05-07 10:05 | 40.58493 | 7.30162 | 34007 ft | 543 kts | 102° |
| 2026-05-07 10:06 | 40.57357 | 7.39989 | 34006 ft | 542 kts | 102° |
| 2026-05-07 10:06 | 40.56671 | 7.49893 | 34010 ft | 548 kts | 89° |
| 2026-05-07 10:07 | 40.57346 | 7.59879 | 33986 ft | 550 kts | 86° |
| 2026-05-07 10:07 | 40.58228 | 7.69909 | 34004 ft | 555 kts | 85° |
| 2026-05-07 10:08 | 40.59124 | 7.80026 | 34004 ft | 556 kts | 85° |
| 2026-05-07 10:08 | 40.59990 | 7.90124 | 33997 ft | 555 kts | 86° |
| 2026-05-07 10:09 | 40.60836 | 8.00230 | 33989 ft | 555 kts | 86° |
| 2026-05-07 10:09 | 40.61668 | 8.10377 | 33990 ft | 560 kts | 86° |
| 2026-05-07 10:10 | 40.62525 | 8.20503 | 33994 ft | 558 kts | 83° |
| 2026-05-07 10:10 | 40.63371 | 8.25464 | 33991 ft | 553 kts | 72° |
| 2026-05-07 10:10 | 40.64682 | 8.30200 | 33992 ft | 550 kts | 69° |
| 2026-05-07 10:11 | 40.67575 | 8.39529 | 33993 ft | 552 kts | 67° |
| 2026-05-07 10:11 | 40.70570 | 8.48878 | 33991 ft | 554 kts | 67° |
| 2026-05-07 10:12 | 40.73553 | 8.58252 | 33991 ft | 554 kts | 67° |
| 2026-05-07 10:12 | 40.76502 | 8.67613 | 33990 ft | 553 kts | 67° |
| 2026-05-07 10:13 | 40.79446 | 8.77017 | 33984 ft | 554 kts | 67° |
| 2026-05-07 10:13 | 40.82381 | 8.86425 | 33994 ft | 552 kts | 67° |
| 2026-05-07 10:14 | 40.85294 | 8.95789 | 33995 ft | 550 kts | 67° |
| 2026-05-07 10:14 | 40.88197 | 9.05151 | 33992 ft | 550 kts | 68° |
| 2026-05-07 10:15 | 40.91096 | 9.14536 | 33997 ft | 550 kts | 67° |
| 2026-05-07 10:15 | 40.93963 | 9.23847 | 33999 ft | 550 kts | 68° |
| 2026-05-07 10:16 | 40.96859 | 9.33286 | 34001 ft | 550 kts | 68° |
| 2026-05-07 10:16 | 40.99709 | 9.42611 | 34022 ft | 551 kts | 67° |
| 2026-05-07 10:17 | 41.02579 | 9.52034 | 34013 ft | 551 kts | 68° |
| 2026-05-07 10:17 | 41.05458 | 9.61519 | 34018 ft | 552 kts | 68° |
| 2026-05-07 10:18 | 41.08295 | 9.70898 | 34017 ft | 552 kts | 68° |
| 2026-05-07 10:18 | 41.11145 | 9.80354 | 34016 ft | 552 kts | 68° |
| 2026-05-07 10:19 | 41.13985 | 9.89811 | 34039 ft | 552 kts | 68° |
| 2026-05-07 10:19 | 41.16815 | 9.99269 | 34018 ft | 554 kts | 68° |
| 2026-05-07 10:20 | 41.19654 | 10.08792 | 34018 ft | 554 kts | 68° |
| 2026-05-07 10:20 | 41.22483 | 10.18315 | 34017 ft | 554 kts | 68° |
| 2026-05-07 10:21 | 41.25305 | 10.27849 | 34018 ft | 554 kts | 68° |
| 2026-05-07 10:21 | 41.28118 | 10.37386 | 34018 ft | 554 kts | 68° |
| 2026-05-07 10:22 | 41.30924 | 10.46937 | 34030 ft | 555 kts | 68° |
| 2026-05-07 10:22 | 41.33730 | 10.56522 | 34018 ft | 557 kts | 68° |
| 2026-05-07 10:23 | 41.36537 | 10.66146 | 34019 ft | 557 kts | 68° |
| 2026-05-07 10:23 | 41.39333 | 10.75769 | 34024 ft | 557 kts | 68° |
| 2026-05-07 10:24 | 41.42123 | 10.85407 | 34021 ft | 557 kts | 68° |
| 2026-05-07 10:24 | 41.44902 | 10.95041 | 34024 ft | 557 kts | 68° |
| 2026-05-07 10:25 | 41.47662 | 11.04647 | 34013 ft | 558 kts | 68° |
| 2026-05-07 10:25 | 41.50433 | 11.14329 | 34032 ft | 559 kts | 68° |
| 2026-05-07 10:26 | 41.53212 | 11.24074 | 34034 ft | 559 kts | 68° |
| 2026-05-07 10:26 | 41.55948 | 11.33704 | 34020 ft | 558 kts | 69° |
| 2026-05-07 10:27 | 41.58712 | 11.43467 | 34028 ft | 557 kts | 69° |
| 2026-05-07 10:27 | 41.61418 | 11.53068 | 34032 ft | 556 kts | 69° |
| 2026-05-07 10:28 | 41.64139 | 11.62759 | 34029 ft | 557 kts | 69° |
| 2026-05-07 10:28 | 41.66859 | 11.72477 | 34024 ft | 557 kts | 69° |
| 2026-05-07 10:29 | 41.69559 | 11.82167 | 34031 ft | 557 kts | 69° |
| 2026-05-07 10:29 | 41.72257 | 11.91883 | 34050 ft | 557 kts | 69° |
| 2026-05-07 10:30 | 41.76285 | 12.06466 | 34054 ft | 556 kts | 69° |
| 2026-05-07 10:30 | 41.78505 | 12.14536 | 34083 ft | 555 kts | 69° |
| 2026-05-07 10:31 | 41.81167 | 12.24250 | 34021 ft | 554 kts | 69° |
| 2026-05-07 10:31 | 41.83819 | 12.33965 | 34021 ft | 554 kts | 70° |
| 2026-05-07 10:32 | 41.86459 | 12.43674 | 34014 ft | 554 kts | 70° |
| 2026-05-07 10:32 | 41.89085 | 12.53368 | 34020 ft | 553 kts | 70° |
| 2026-05-07 10:33 | 41.91707 | 12.63087 | 34040 ft | 552 kts | 70° |
| 2026-05-07 10:33 | 41.94314 | 12.72787 | 34023 ft | 553 kts | 70° |
| 2026-05-07 10:34 | 41.96913 | 12.82500 | 34017 ft | 552 kts | 70° |
| 2026-05-07 10:34 | 41.99505 | 12.92221 | 34019 ft | 552 kts | 70° |
| 2026-05-07 10:35 | 42.02072 | 13.01877 | 34020 ft | 551 kts | 70° |
| 2026-05-07 10:35 | 42.04655 | 13.11645 | 34017 ft | 552 kts | 70° |
| 2026-05-07 10:36 | 42.07197 | 13.21302 | 34013 ft | 550 kts | 70° |
| 2026-05-07 10:36 | 42.09747 | 13.31027 | 34013 ft | 550 kts | 70° |
| 2026-05-07 10:37 | 42.12286 | 13.40736 | 34016 ft | 550 kts | 70° |
| 2026-05-07 10:37 | 42.14822 | 13.50476 | 33987 ft | 550 kts | 70° |
| 2026-05-07 10:38 | 42.17345 | 13.60220 | 34014 ft | 550 kts | 70° |
| 2026-05-07 10:38 | 42.19857 | 13.69949 | 34033 ft | 550 kts | 71° |
| 2026-05-07 10:39 | 42.22362 | 13.79686 | 34013 ft | 550 kts | 71° |
| 2026-05-07 10:39 | 42.24855 | 13.89422 | 34002 ft | 548 kts | 71° |
| 2026-05-07 10:40 | 42.27330 | 13.99135 | 34011 ft | 547 kts | 71° |
| 2026-05-07 10:40 | 42.29800 | 14.08858 | 34025 ft | 547 kts | 71° |
| 2026-05-07 10:41 | 42.32243 | 14.18513 | 34021 ft | 548 kts | 71° |
| 2026-05-07 10:41 | 42.34698 | 14.28255 | 34028 ft | 546 kts | 71° |
| 2026-05-07 10:42 | 42.37131 | 14.37958 | 34016 ft | 545 kts | 71° |
| 2026-05-07 10:42 | 42.39559 | 14.47679 | 34014 ft | 545 kts | 71° |
| 2026-05-07 10:43 | 42.41977 | 14.57397 | 34016 ft | 545 kts | 71° |
| 2026-05-07 10:43 | 42.44386 | 14.67122 | 34020 ft | 545 kts | 71° |
| 2026-05-07 10:44 | 42.46793 | 14.76879 | 34010 ft | 545 kts | 71° |
| 2026-05-07 10:44 | 42.49189 | 14.86630 | 34016 ft | 545 kts | 72° |
| 2026-05-07 10:45 | 42.51569 | 14.96363 | 34002 ft | 544 kts | 71° |
| 2026-05-07 10:45 | 42.53924 | 15.06028 | 34007 ft | 542 kts | 71° |
| 2026-05-07 10:46 | 42.56280 | 15.15741 | 34007 ft | 542 kts | 71° |
| 2026-05-07 10:46 | 42.58631 | 15.25471 | 34008 ft | 543 kts | 71° |
| 2026-05-07 10:47 | 42.60971 | 15.35200 | 34010 ft | 542 kts | 71° |
| 2026-05-07 10:47 | 42.63293 | 15.44896 | 34010 ft | 539 kts | 71° |
| 2026-05-07 10:48 | 42.65603 | 15.54581 | 34015 ft | 539 kts | 72° |
| 2026-05-07 10:48 | 42.67910 | 15.64296 | 33999 ft | 539 kts | 72° |
| 2026-05-07 10:49 | 42.70167 | 15.73998 | 34011 ft | 538 kts | 75° |
| 2026-05-07 10:49 | 42.71882 | 15.83887 | 34024 ft | 537 kts | 77° |
| 2026-05-07 10:50 | 42.73491 | 15.93794 | 34026 ft | 535 kts | 78° |
| 2026-05-07 10:50 | 42.75070 | 16.03674 | 34032 ft | 533 kts | 78° |
| 2026-05-07 10:51 | 42.76638 | 16.13514 | 34020 ft | 530 kts | 78° |
| 2026-05-07 10:51 | 42.78185 | 16.23253 | 34030 ft | 530 kts | 78° |
| 2026-05-07 10:52 | 42.79733 | 16.33053 | 34046 ft | 530 kts | 78° |
| 2026-05-07 10:52 | 42.81275 | 16.42861 | 34047 ft | 528 kts | 78° |
| 2026-05-07 10:53 | 42.82800 | 16.52624 | 34060 ft | 527 kts | 79° |
| 2026-05-07 10:53 | 42.84314 | 16.62377 | 34054 ft | 527 kts | 79° |
| 2026-05-07 10:54 | 42.85822 | 16.72153 | 34051 ft | 527 kts | 79° |
| 2026-05-07 10:54 | 42.87323 | 16.81939 | 34064 ft | 527 kts | 79° |
| 2026-05-07 10:55 | 42.88814 | 16.91712 | 34072 ft | 527 kts | 79° |
| 2026-05-07 10:55 | 42.90287 | 17.01433 | 34073 ft | 527 kts | 79° |
| 2026-05-07 10:56 | 42.91761 | 17.11221 | 34074 ft | 527 kts | 78° |
| 2026-05-07 10:56 | 42.93229 | 17.21021 | 34083 ft | 527 kts | 79° |
| 2026-05-07 10:57 | 42.94688 | 17.30830 | 34086 ft | 526 kts | 79° |
| 2026-05-07 10:57 | 42.96136 | 17.40622 | 34078 ft | 526 kts | 79° |
| 2026-05-07 10:58 | 42.97568 | 17.50377 | 34092 ft | 521 kts | 79° |
| 2026-05-07 10:58 | 42.98984 | 17.60061 | 34093 ft | 520 kts | 79° |
| 2026-05-07 10:59 | 43.00389 | 17.69740 | 34099 ft | 520 kts | 79° |
| 2026-05-07 10:59 | 43.01784 | 17.79420 | 34099 ft | 518 kts | 80° |
| 2026-05-07 11:00 | 43.03162 | 17.89030 | 34106 ft | 514 kts | 81° |
| 2026-05-07 11:00 | 43.04528 | 17.98618 | 34107 ft | 513 kts | 81° |
| 2026-05-07 11:01 | 43.05878 | 18.08170 | 34104 ft | 513 kts | 81° |
| 2026-05-07 11:01 | 43.07226 | 18.17763 | 34109 ft | 513 kts | 81° |
| 2026-05-07 11:02 | 43.08558 | 18.27294 | 34113 ft | 513 kts | 81° |
| 2026-05-07 11:02 | 43.09890 | 18.36890 | 34112 ft | 513 kts | 81° |
| 2026-05-07 11:03 | 43.11215 | 18.46478 | 34109 ft | 513 kts | 82° |
| 2026-05-07 11:03 | 43.12525 | 18.56028 | 34110 ft | 510 kts | 82° |
| 2026-05-07 11:04 | 43.13823 | 18.65572 | 34122 ft | 510 kts | 82° |
| 2026-05-07 11:04 | 43.15112 | 18.75107 | 34118 ft | 510 kts | 82° |
| 2026-05-07 11:05 | 43.16399 | 18.84654 | 34117 ft | 509 kts | 83° |
| 2026-05-07 11:05 | 43.17672 | 18.94204 | 34109 ft | 509 kts | 83° |
| 2026-05-07 11:06 | 43.18933 | 19.03733 | 34105 ft | 509 kts | 83° |
| 2026-05-07 11:06 | 43.20181 | 19.13223 | 34081 ft | 510 kts | 83° |
| 2026-05-07 11:07 | 43.21431 | 19.22778 | 34088 ft | 509 kts | 84° |
| 2026-05-07 11:07 | 43.22673 | 19.32335 | 34084 ft | 508 kts | 84° |
| 2026-05-07 11:08 | 43.23906 | 19.41880 | 34078 ft | 508 kts | 84° |
| 2026-05-07 11:08 | 43.25131 | 19.51429 | 34077 ft | 510 kts | 84° |
| 2026-05-07 11:09 | 43.26358 | 19.61077 | 34076 ft | 514 kts | 84° |
| 2026-05-07 11:09 | 43.27580 | 19.70738 | 34074 ft | 514 kts | 84° |
| 2026-05-07 11:10 | 43.28796 | 19.80429 | 34072 ft | 515 kts | 84° |
| 2026-05-07 11:10 | 43.30006 | 19.90137 | 34078 ft | 517 kts | 84° |
| 2026-05-07 11:11 | 43.31201 | 19.99790 | 34077 ft | 517 kts | 84° |
| 2026-05-07 11:11 | 43.32399 | 20.09535 | 34076 ft | 517 kts | 84° |
| 2026-05-07 11:12 | 43.33585 | 20.19263 | 34081 ft | 517 kts | 84° |
| 2026-05-07 11:12 | 43.34762 | 20.28996 | 34075 ft | 515 kts | 84° |
| 2026-05-07 11:13 | 43.35929 | 20.38641 | 34088 ft | 510 kts | 82° |
| 2026-05-07 11:13 | 43.37133 | 20.48201 | 34077 ft | 509 kts | 84° |
| 2026-05-07 11:14 | 43.38232 | 20.57808 | 34092 ft | 508 kts | 85° |
| 2026-05-07 11:14 | 43.39329 | 20.67402 | 34082 ft | 508 kts | 84° |
| 2026-05-07 11:15 | 43.40444 | 20.77037 | 34093 ft | 511 kts | 84° |
| 2026-05-07 11:15 | 43.41272 | 20.86711 | 34092 ft | 507 kts | 94° |
| 2026-05-07 11:16 | 43.40256 | 20.96145 | 34095 ft | 497 kts | 109° |
| 2026-05-07 11:16 | 43.38287 | 21.05270 | 34081 ft | 496 kts | 111° |
| 2026-05-07 11:17 | 43.36198 | 21.14323 | 34094 ft | 498 kts | 111° |
| 2026-05-07 11:17 | 43.34101 | 21.23430 | 34093 ft | 499 kts | 111° |
| 2026-05-07 11:18 | 43.32026 | 21.32509 | 34102 ft | 498 kts | 111° |
| 2026-05-07 11:18 | 43.29964 | 21.41528 | 34095 ft | 499 kts | 111° |
| 2026-05-07 11:19 | 43.27879 | 21.50610 | 34097 ft | 499 kts | 111° |
| 2026-05-07 11:19 | 43.25789 | 21.59675 | 34103 ft | 499 kts | 111° |
| 2026-05-07 11:20 | 43.24026 | 21.67290 | 34119 ft | 499 kts | 111° |
| 2026-05-07 11:20 | 43.21923 | 21.76342 | 34117 ft | 499 kts | 111° |
| 2026-05-07 11:21 | 43.19808 | 21.85403 | 34099 ft | 499 kts | 111° |
| 2026-05-07 11:21 | 43.17686 | 21.94462 | 34120 ft | 499 kts | 111° |
| 2026-05-07 11:22 | 43.15559 | 22.03501 | 34108 ft | 498 kts | 111° |
| 2026-05-07 11:22 | 43.13429 | 22.12511 | 34112 ft | 504 kts | 111° |
| 2026-05-07 11:23 | 43.11260 | 22.21658 | 34119 ft | 505 kts | 111° |
| 2026-05-07 11:23 | 43.09090 | 22.30778 | 34124 ft | 504 kts | 111° |
| 2026-05-07 11:24 | 43.06904 | 22.39924 | 34122 ft | 506 kts | 111° |
| 2026-05-07 11:24 | 43.04698 | 22.49110 | 34119 ft | 510 kts | 111° |
| 2026-05-07 11:25 | 43.02482 | 22.58330 | 34126 ft | 510 kts | 111° |
| 2026-05-07 11:25 | 43.00253 | 22.67534 | 34124 ft | 510 kts | 111° |
| 2026-05-07 11:26 | 42.98081 | 22.76804 | 34110 ft | 515 kts | 106° |
| 2026-05-07 11:26 | 42.97306 | 22.86584 | 34123 ft | 520 kts | 93° |
| 2026-05-07 11:27 | 42.97295 | 22.96470 | 34117 ft | 521 kts | 91° |
| 2026-05-07 11:27 | 42.97373 | 23.06378 | 34113 ft | 522 kts | 91° |
| 2026-05-07 11:28 | 42.97427 | 23.16295 | 34111 ft | 524 kts | 91° |
| 2026-05-07 11:28 | 42.97455 | 23.26256 | 34111 ft | 524 kts | 91° |
| 2026-05-07 11:29 | 42.97467 | 23.36113 | 34112 ft | 523 kts | 91° |
| 2026-05-07 11:29 | 42.97469 | 23.46126 | 34105 ft | 524 kts | 91° |
| 2026-05-07 11:30 | 42.97463 | 23.56096 | 34101 ft | 526 kts | 91° |
| 2026-05-07 11:30 | 42.97617 | 23.66049 | 34091 ft | 524 kts | 85° |
| 2026-05-07 11:31 | 42.97642 | 23.76042 | 34091 ft | 527 kts | 92° |
| 2026-05-07 11:31 | 42.97468 | 23.86024 | 34086 ft | 526 kts | 92° |
| 2026-05-07 11:32 | 42.97323 | 24.00976 | 34081 ft | 526 kts | 92° |
| 2026-05-07 11:33 | 42.97271 | 24.11042 | 34083 ft | 526 kts | 91° |
| 2026-05-07 11:33 | 42.97215 | 24.20959 | 34073 ft | 526 kts | 91° |
| 2026-05-07 11:34 | 42.97147 | 24.31028 | 34072 ft | 528 kts | 91° |
| 2026-05-07 11:34 | 42.97068 | 24.40996 | 34073 ft | 528 kts | 91° |
| 2026-05-07 11:35 | 42.96978 | 24.51018 | 34069 ft | 528 kts | 91° |
| 2026-05-07 11:35 | 42.96882 | 24.61041 | 34064 ft | 528 kts | 91° |
| 2026-05-07 11:36 | 42.96776 | 24.71088 | 34065 ft | 528 kts | 91° |
| 2026-05-07 11:36 | 42.96661 | 24.81103 | 34064 ft | 528 kts | 91° |
| 2026-05-07 11:37 | 42.96539 | 24.91116 | 34062 ft | 528 kts | 91° |
| 2026-05-07 11:37 | 42.96407 | 25.01135 | 34058 ft | 527 kts | 90° |
| 2026-05-07 11:38 | 42.96267 | 25.11089 | 34057 ft | 523 kts | 90° |
| 2026-05-07 11:38 | 42.96119 | 25.21013 | 34056 ft | 523 kts | 91° |
| 2026-05-07 11:39 | 42.95964 | 25.30884 | 34056 ft | 523 kts | 91° |
| 2026-05-07 11:39 | 42.95798 | 25.40868 | 34044 ft | 523 kts | 91° |
| 2026-05-07 11:40 | 42.95624 | 25.50803 | 34037 ft | 523 kts | 91° |
| 2026-05-07 11:40 | 42.95442 | 25.60666 | 34033 ft | 523 kts | 91° |
| 2026-05-07 11:41 | 42.95252 | 25.70593 | 34032 ft | 523 kts | 91° |
| 2026-05-07 11:41 | 42.95052 | 25.80516 | 34031 ft | 522 kts | 91° |
| 2026-05-07 11:42 | 42.94845 | 25.90406 | 34036 ft | 521 kts | 91° |
| 2026-05-07 11:42 | 42.94629 | 26.00281 | 34047 ft | 520 kts | 91° |
| 2026-05-07 11:43 | 42.94406 | 26.10167 | 34049 ft | 520 kts | 91° |
| 2026-05-07 11:43 | 42.94174 | 26.20036 | 34052 ft | 520 kts | 90° |
| 2026-05-07 11:44 | 42.93933 | 26.29903 | 34056 ft | 520 kts | 90° |
| 2026-05-07 11:44 | 42.93684 | 26.39759 | 34064 ft | 520 kts | 90° |
| 2026-05-07 11:45 | 42.93427 | 26.49617 | 34062 ft | 520 kts | 90° |
| 2026-05-07 11:45 | 42.93161 | 26.59478 | 34067 ft | 520 kts | 90° |
| 2026-05-07 11:46 | 42.92885 | 26.69365 | 34071 ft | 520 kts | 90° |
| 2026-05-07 11:46 | 42.92603 | 26.79160 | 34077 ft | 520 kts | 90° |
| 2026-05-07 11:47 | 42.92313 | 26.89037 | 34084 ft | 521 kts | 90° |
| 2026-05-07 11:47 | 42.92013 | 26.98910 | 34088 ft | 521 kts | 90° |
| 2026-05-07 11:48 | 42.91704 | 27.08778 | 34092 ft | 521 kts | 90° |
| 2026-05-07 11:48 | 42.91385 | 27.18675 | 34086 ft | 522 kts | 90° |
| 2026-05-07 11:49 | 42.91058 | 27.28560 | 34094 ft | 521 kts | 90° |
| 2026-05-07 11:49 | 42.90724 | 27.38434 | 34097 ft | 521 kts | 89° |
| 2026-05-07 11:50 | 42.90380 | 27.48322 | 34103 ft | 521 kts | 90° |
| 2026-05-07 11:50 | 42.90028 | 27.58214 | 34109 ft | 522 kts | 90° |
| 2026-05-07 11:51 | 42.89668 | 27.68103 | 34114 ft | 522 kts | 89° |
| 2026-05-07 11:51 | 42.89298 | 27.78009 | 34135 ft | 523 kts | 89° |
| 2026-05-07 11:52 | 42.88920 | 27.87904 | 34143 ft | 523 kts | 89° |
| 2026-05-07 11:52 | 42.88534 | 27.97808 | 34148 ft | 523 kts | 89° |
| 2026-05-07 11:53 | 42.88130 | 28.07711 | 34164 ft | 523 kts | 89° |
| 2026-05-07 11:53 | 42.87673 | 28.17594 | 34153 ft | 523 kts | 89° |
| 2026-05-07 11:54 | 42.87200 | 28.27483 | 34157 ft | 522 kts | 89° |
| 2026-05-07 11:54 | 42.86729 | 28.37303 | 34156 ft | 522 kts | 89° |
| 2026-05-07 11:55 | 42.86250 | 28.47196 | 34169 ft | 523 kts | 90° |
| 2026-05-07 11:55 | 42.85764 | 28.57070 | 34157 ft | 522 kts | 90° |
| 2026-05-07 11:56 | 42.85269 | 28.66951 | 34157 ft | 522 kts | 90° |
| 2026-05-07 11:56 | 42.84766 | 28.76811 | 34157 ft | 522 kts | 90° |
| 2026-05-07 11:57 | 42.84254 | 28.86695 | 34162 ft | 522 kts | 90° |
| 2026-05-07 11:57 | 42.83735 | 28.96515 | 34156 ft | 519 kts | 90° |
| 2026-05-07 11:58 | 42.83208 | 29.06339 | 34157 ft | 519 kts | 90° |
| 2026-05-07 11:58 | 42.82678 | 29.16086 | 34157 ft | 520 kts | 90° |
| 2026-05-07 11:59 | 42.82135 | 29.25908 | 34157 ft | 520 kts | 90° |
| 2026-05-07 11:59 | 42.81584 | 29.35717 | 34156 ft | 520 kts | 90° |
| 2026-05-07 12:00 | 42.81024 | 29.45529 | 34157 ft | 520 kts | 90° |
| 2026-05-07 12:00 | 42.80455 | 29.55355 | 34159 ft | 520 kts | 91° |
| 2026-05-07 12:01 | 42.79879 | 29.65158 | 34159 ft | 518 kts | 91° |
| 2026-05-07 12:01 | 42.79296 | 29.74927 | 34159 ft | 516 kts | 91° |
| 2026-05-07 12:02 | 42.78707 | 29.84668 | 34162 ft | 516 kts | 91° |
| 2026-05-07 12:02 | 42.78109 | 29.94409 | 34162 ft | 517 kts | 91° |
| 2026-05-07 12:03 | 42.77503 | 30.04167 | 34163 ft | 515 kts | 92° |
| 2026-05-07 12:03 | 42.76891 | 30.13859 | 34162 ft | 514 kts | 92° |
| 2026-05-07 12:04 | 42.76375 | 30.21925 | 34162 ft | 514 kts | 92° |
| 2026-05-07 12:04 | 42.75646 | 30.33194 | 34169 ft | 514 kts | 92° |
| 2026-05-07 12:05 | 42.75011 | 30.42862 | 34161 ft | 512 kts | 91° |
| 2026-05-07 12:05 | 42.74475 | 30.50931 | 34162 ft | 511 kts | 91° |
| 2026-05-07 12:06 | 42.73620 | 30.60490 | 34163 ft | 515 kts | 99° |
| 2026-05-07 12:06 | 42.71920 | 30.69954 | 34156 ft | 516 kts | 102° |
| 2026-05-07 12:07 | 42.70068 | 30.79391 | 34160 ft | 517 kts | 101° |
| 2026-05-07 12:07 | 42.68186 | 30.88852 | 34159 ft | 518 kts | 101° |
| 2026-05-07 12:08 | 42.66311 | 30.98296 | 34162 ft | 518 kts | 101° |
| 2026-05-07 12:08 | 42.64437 | 31.07742 | 34162 ft | 518 kts | 101° |
| 2026-05-07 12:09 | 42.62563 | 31.17153 | 34159 ft | 520 kts | 101° |
| 2026-05-07 12:09 | 42.60655 | 31.26685 | 34161 ft | 520 kts | 101° |
| 2026-05-07 12:10 | 42.58752 | 31.36146 | 34159 ft | 520 kts | 101° |
| 2026-05-07 12:10 | 42.56854 | 31.45537 | 34156 ft | 520 kts | 101° |
| 2026-05-07 12:11 | 42.54932 | 31.55005 | 34154 ft | 520 kts | 101° |
| 2026-05-07 12:11 | 42.53003 | 31.64462 | 34153 ft | 520 kts | 101° |
| 2026-05-07 12:12 | 42.51068 | 31.73907 | 34171 ft | 520 kts | 101° |
| 2026-05-07 12:12 | 42.49125 | 31.83341 | 34157 ft | 519 kts | 101° |
| 2026-05-07 12:13 | 42.47177 | 31.92761 | 34164 ft | 519 kts | 101° |
| 2026-05-07 12:13 | 42.45220 | 32.02181 | 34156 ft | 519 kts | 102° |
| 2026-05-07 12:14 | 42.43272 | 32.11514 | 34160 ft | 517 kts | 102° |
| 2026-05-07 12:14 | 42.41295 | 32.20940 | 34159 ft | 516 kts | 102° |
| 2026-05-07 12:15 | 42.39341 | 32.30221 | 34159 ft | 516 kts | 102° |
| 2026-05-07 12:15 | 42.37367 | 32.39555 | 34165 ft | 516 kts | 102° |
| 2026-05-07 12:16 | 42.35387 | 32.48876 | 34158 ft | 516 kts | 102° |
| 2026-05-07 12:16 | 42.33516 | 32.58236 | 34081 ft | 513 kts | 94° |
| 2026-05-07 12:16 | 42.33628 | 32.63022 | 32441 ft | 514 kts | 70° |
| 2026-05-07 12:17 | 42.35067 | 32.67395 | 25933 ft | 491 kts | 60° |
| 2026-05-07 12:17 | 42.36883 | 32.70791 | 11086 ft | 428 kts | 44° |
| 2026-05-07 12:17 | 42.38972 | 32.73607 | 11040 ft | 408 kts | 44° |
| 2026-05-07 12:17 | 42.40950 | 32.76272 | 10714 ft | 395 kts | 44° |
| 2026-05-07 12:18 | 42.42853 | 32.78838 | 10371 ft | 385 kts | 45° |
| 2026-05-07 12:18 | 42.44715 | 32.81348 | 10187 ft | 370 kts | 45° |
| 2026-05-07 12:18 | 42.46484 | 32.83734 | 10280 ft | 346 kts | 45° |
| 2026-05-07 12:18 | 42.48110 | 32.85928 | 10718 ft | 311 kts | 45° |
| 2026-05-07 12:19 | 42.49568 | 32.87897 | 11002 ft | 285 kts | 45° |
| 2026-05-07 12:19 | 42.50509 | 32.89167 | 10767 ft | 284 kts | 45° |
| 2026-05-07 12:19 | 42.51951 | 32.91111 | 9813 ft | 304 kts | 45° |
| 2026-05-07 12:19 | 42.53513 | 32.93212 | 8683 ft | 327 kts | 45° |
| 2026-05-07 12:20 | 42.55152 | 32.95418 | 8028 ft | 333 kts | 45° |
| 2026-05-07 12:20 | 42.56773 | 32.97600 | 7805 ft | 321 kts | 45° |
| 2026-05-07 12:20 | 42.58286 | 32.99638 | 7913 ft | 300 kts | 45° |
| 2026-05-07 12:20 | 42.59726 | 33.01575 | 7823 ft | 287 kts | 45° |
| 2026-05-07 12:21 | 42.61153 | 33.03492 | 7287 ft | 292 kts | 45° |
| 2026-05-07 12:21 | 42.62632 | 33.05479 | 6485 ft | 307 kts | 45° |
| 2026-05-07 12:21 | 42.64174 | 33.07556 | 5854 ft | 313 kts | 45° |
| 2026-05-07 12:21 | 42.65701 | 33.09616 | 5632 ft | 303 kts | 45° |
| 2026-05-07 12:22 | 42.67161 | 33.11582 | 5602 ft | 288 kts | 45° |
| 2026-05-07 12:22 | 42.68561 | 33.13468 | 5341 ft | 282 kts | 45° |
| 2026-05-07 12:22 | 42.69968 | 33.15364 | 4770 ft | 288 kts | 45° |
| 2026-05-07 12:22 | 42.71411 | 33.17307 | 4190 ft | 294 kts | 45° |
| 2026-05-07 12:23 | 42.72858 | 33.19256 | 3871 ft | 289 kts | 45° |
| 2026-05-07 12:23 | 42.74251 | 33.21131 | 3773 ft | 276 kts | 45° |
| 2026-05-07 12:23 | 42.75596 | 33.22941 | 3513 ft | 270 kts | 45° |
| 2026-05-07 12:23 | 42.76933 | 33.24740 | 3057 ft | 272 kts | 45° |
| 2026-05-07 12:24 | 42.78290 | 33.26564 | 2554 ft | 275 kts | 45° |
| 2026-05-07 12:24 | 42.79647 | 33.28384 | 2225 ft | 271 kts | 45° |
| 2026-05-07 12:24 | 42.80974 | 33.30163 | 2007 ft | 263 kts | 45° |
| 2026-05-07 12:24 | 42.82266 | 33.31891 | 1724 ft | 259 kts | 46° |
| 2026-05-07 12:25 | 42.83554 | 33.33606 | 1327 ft | 259 kts | 46° |
| 2026-05-07 12:25 | 42.84837 | 33.35317 | 943 ft | 258 kts | 46° |
| 2026-05-07 12:25 | 42.86114 | 33.37022 | 575 ft | 256 kts | 46° |
| 2026-05-07 12:25 | 42.86952 | 33.38142 | 321 ft | 255 kts | 46° |